sensor_id;sensor_type;location;lat;lon;timestamp;P1;durP1;ratioP1;P2;durP2;ratioP2
75550;SDS011;65071;53.082;18.218;2023-01-28T00:00:51;2.50;;;1.60;;
75550;SDS011;65071;53.082;18.218;2023-01-28T00:03:24;2.60;;;1.60;;
75550;SDS011;65071;53.082;18.218;2023-01-28T00:05:51;2.10;;;1.50;;
75550;SDS011;65071;53.082;18.218;2023-01-28T00:08:19;1.80;;;1.10;;
75550;SDS011;65071;53.082;18.218;2023-01-28T00:10:46;4.20;;;2.10;;
75550;SDS011;65071;53.082;18.218;2023-01-28T00:13:12;4.00;;;2.00;;
75550;SDS011;65071;53.082;18.218;2023-01-28T00:15:42;2.20;;;1.50;;
75550;SDS011;65071;53.082;18.218;2023-01-28T00:18:08;3.50;;;1.90;;
75550;SDS011;65071;53.082;18.218;2023-01-28T00:20:35;4.60;;;2.20;;
75550;SDS011;65071;53.082;18.218;2023-01-28T00:23:02;3.20;;;1.90;;
75550;SDS011;65071;53.082;18.218;2023-01-28T00:25:29;4.40;;;2.10;;
75550;SDS011;65071;53.082;18.218;2023-01-28T00:27:56;2.90;;;2.00;;
75550;SDS011;65071;53.082;18.218;2023-01-28T00:30:23;3.10;;;1.90;;
75550;SDS011;65071;53.082;18.218;2023-01-28T00:32:49;4.60;;;2.00;;
75550;SDS011;65071;53.082;18.218;2023-01-28T00:35:16;2.80;;;2.10;;
75550;SDS011;65071;53.082;18.218;2023-01-28T00:37:44;4.60;;;2.20;;
75550;SDS011;65071;53.082;18.218;2023-01-28T00:40:12;3.10;;;2.10;;
75550;SDS011;65071;53.082;18.218;2023-01-28T00:42:39;3.40;;;2.20;;
75550;SDS011;65071;53.082;18.218;2023-01-28T00:45:06;3.10;;;2.30;;
75550;SDS011;65071;53.082;18.218;2023-01-28T00:47:34;3.40;;;2.30;;
75550;SDS011;65071;53.082;18.218;2023-01-28T00:50:01;3.80;;;1.90;;
75550;SDS011;65071;53.082;18.218;2023-01-28T00:52:30;3.40;;;2.00;;
75550;SDS011;65071;53.082;18.218;2023-01-28T00:54:57;5.00;;;2.40;;
75550;SDS011;65071;53.082;18.218;2023-01-28T00:57:25;4.20;;;2.20;;
75550;SDS011;65071;53.082;18.218;2023-01-28T00:59:52;2.90;;;2.20;;
75550;SDS011;65071;53.082;18.218;2023-01-28T01:02:19;3.70;;;2.20;;
75550;SDS011;65071;53.082;18.218;2023-01-28T01:04:45;5.20;;;2.60;;
75550;SDS011;65071;53.082;18.218;2023-01-28T01:07:26;5.40;;;2.90;;
75550;SDS011;65071;53.082;18.218;2023-01-28T01:10:00;4.20;;;2.50;;
75550;SDS011;65071;53.082;18.218;2023-01-28T01:12:27;4.60;;;2.40;;
75550;SDS011;65071;53.082;18.218;2023-01-28T01:14:55;3.80;;;2.20;;
75550;SDS011;65071;53.082;18.218;2023-01-28T01:17:23;4.90;;;2.60;;
75550;SDS011;65071;53.082;18.218;2023-01-28T01:19:50;5.10;;;2.40;;
75550;SDS011;65071;53.082;18.218;2023-01-28T01:22:16;4.40;;;3.10;;
75550;SDS011;65071;53.082;18.218;2023-01-28T01:24:43;3.50;;;2.40;;
75550;SDS011;65071;53.082;18.218;2023-01-28T01:27:10;4.80;;;2.50;;
75550;SDS011;65071;53.082;18.218;2023-01-28T01:29:36;6.30;;;3.20;;
75550;SDS011;65071;53.082;18.218;2023-01-28T01:32:03;5.30;;;3.00;;
75550;SDS011;65071;53.082;18.218;2023-01-28T01:34:30;6.00;;;3.00;;
75550;SDS011;65071;53.082;18.218;2023-01-28T01:36:57;3.80;;;2.30;;
75550;SDS011;65071;53.082;18.218;2023-01-28T01:39:23;4.40;;;2.20;;
75550;SDS011;65071;53.082;18.218;2023-01-28T01:41:50;4.90;;;2.80;;
75550;SDS011;65071;53.082;18.218;2023-01-28T01:50:06;3.80;;;2.40;;
75550;SDS011;65071;53.082;18.218;2023-01-28T01:52:41;3.10;;;2.00;;
75550;SDS011;65071;53.082;18.218;2023-01-28T01:55:11;3.80;;;2.00;;
75550;SDS011;65071;53.082;18.218;2023-01-28T01:57:42;2.50;;;2.00;;
75550;SDS011;65071;53.082;18.218;2023-01-28T02:00:11;2.80;;;2.00;;
75550;SDS011;65071;53.082;18.218;2023-01-28T02:02:45;3.90;;;2.20;;
75550;SDS011;65071;53.082;18.218;2023-01-28T02:05:17;2.80;;;2.00;;
75550;SDS011;65071;53.082;18.218;2023-01-28T02:10:13;3.50;;;2.00;;
75550;SDS011;65071;53.082;18.218;2023-01-28T02:12:44;2.70;;;1.70;;
75550;SDS011;65071;53.082;18.218;2023-01-28T02:15:17;3.30;;;2.00;;
75550;SDS011;65071;53.082;18.218;2023-01-28T02:17:47;3.20;;;1.80;;
75550;SDS011;65071;53.082;18.218;2023-01-28T02:20:20;3.00;;;2.30;;
75550;SDS011;65071;53.082;18.218;2023-01-28T02:31:23;3.40;;;2.20;;
75550;SDS011;65071;53.082;18.218;2023-01-28T02:34:18;2.60;;;1.70;;
75550;SDS011;65071;53.082;18.218;2023-01-28T02:36:52;4.80;;;1.90;;
75550;SDS011;65071;53.082;18.218;2023-01-28T02:39:24;4.00;;;1.90;;
75550;SDS011;65071;53.082;18.218;2023-01-28T02:42:01;3.80;;;1.80;;
75550;SDS011;65071;53.082;18.218;2023-01-28T02:44:32;2.80;;;1.70;;
75550;SDS011;65071;53.082;18.218;2023-01-28T02:47:00;2.30;;;1.50;;
75550;SDS011;65071;53.082;18.218;2023-01-28T02:49:50;2.50;;;1.80;;
75550;SDS011;65071;53.082;18.218;2023-01-28T02:52:29;2.30;;;1.50;;
75550;SDS011;65071;53.082;18.218;2023-01-28T02:55:31;1.60;;;1.30;;
75550;SDS011;65071;53.082;18.218;2023-01-28T02:58:10;5.20;;;1.90;;
75550;SDS011;65071;53.082;18.218;2023-01-28T03:06:00;2.60;;;1.70;;
75550;SDS011;65071;53.082;18.218;2023-01-28T03:08:37;3.20;;;2.10;;
75550;SDS011;65071;53.082;18.218;2023-01-28T03:11:29;4.70;;;2.40;;
75550;SDS011;65071;53.082;18.218;2023-01-28T03:14:19;3.60;;;2.40;;
75550;SDS011;65071;53.082;18.218;2023-01-28T03:17:07;3.50;;;2.40;;
75550;SDS011;65071;53.082;18.218;2023-01-28T03:19:59;5.90;;;2.50;;
75550;SDS011;65071;53.082;18.218;2023-01-28T03:22:44;2.80;;;1.80;;
75550;SDS011;65071;53.082;18.218;2023-01-28T03:25:33;4.30;;;2.20;;
75550;SDS011;65071;53.082;18.218;2023-01-28T03:28:19;2.90;;;1.50;;
75550;SDS011;65071;53.082;18.218;2023-01-28T03:31:11;4.20;;;2.10;;
75550;SDS011;65071;53.082;18.218;2023-01-28T03:33:59;3.70;;;2.00;;
75550;SDS011;65071;53.082;18.218;2023-01-28T03:36:47;3.60;;;1.80;;
75550;SDS011;65071;53.082;18.218;2023-01-28T03:39:36;2.50;;;1.60;;
75550;SDS011;65071;53.082;18.218;2023-01-28T03:42:11;3.00;;;2.00;;
75550;SDS011;65071;53.082;18.218;2023-01-28T03:44:47;1.90;;;1.20;;
75550;SDS011;65071;53.082;18.218;2023-01-28T03:47:22;2.50;;;1.90;;
75550;SDS011;65071;53.082;18.218;2023-01-28T03:49:51;3.00;;;2.10;;
75550;SDS011;65071;53.082;18.218;2023-01-28T03:52:22;3.70;;;2.00;;
75550;SDS011;65071;53.082;18.218;2023-01-28T03:54:50;3.20;;;1.60;;
75550;SDS011;65071;53.082;18.218;2023-01-28T03:57:22;3.20;;;1.70;;
75550;SDS011;65071;53.082;18.218;2023-01-28T03:59:51;2.30;;;1.80;;
75550;SDS011;65071;53.082;18.218;2023-01-28T04:02:22;2.70;;;2.10;;
75550;SDS011;65071;53.082;18.218;2023-01-28T04:04:51;3.40;;;1.60;;
75550;SDS011;65071;53.082;18.218;2023-01-28T04:07:18;4.10;;;2.20;;
75550;SDS011;65071;53.082;18.218;2023-01-28T04:10:14;4.00;;;2.00;;
75550;SDS011;65071;53.082;18.218;2023-01-28T04:13:05;2.70;;;1.80;;
75550;SDS011;65071;53.082;18.218;2023-01-28T04:15:32;4.00;;;2.00;;
75550;SDS011;65071;53.082;18.218;2023-01-28T04:17:59;3.10;;;2.00;;
75550;SDS011;65071;53.082;18.218;2023-01-28T04:20:30;3.20;;;2.00;;
75550;SDS011;65071;53.082;18.218;2023-01-28T04:22:59;3.40;;;2.00;;
75550;SDS011;65071;53.082;18.218;2023-01-28T04:25:26;3.60;;;2.10;;
75550;SDS011;65071;53.082;18.218;2023-01-28T04:27:53;3.50;;;2.00;;
75550;SDS011;65071;53.082;18.218;2023-01-28T04:30:22;3.10;;;1.80;;
75550;SDS011;65071;53.082;18.218;2023-01-28T04:33:09;2.70;;;1.40;;
75550;SDS011;65071;53.082;18.218;2023-01-28T04:35:59;1.60;;;1.30;;
75550;SDS011;65071;53.082;18.218;2023-01-28T04:38:48;2.50;;;1.80;;
75550;SDS011;65071;53.082;18.218;2023-01-28T04:41:34;3.30;;;1.60;;
75550;SDS011;65071;53.082;18.218;2023-01-28T04:44:06;4.10;;;2.20;;
75550;SDS011;65071;53.082;18.218;2023-01-28T04:46:52;2.60;;;2.00;;
75550;SDS011;65071;53.082;18.218;2023-01-28T04:49:37;2.40;;;1.50;;
75550;SDS011;65071;53.082;18.218;2023-01-28T04:52:22;2.40;;;1.40;;
75550;SDS011;65071;53.082;18.218;2023-01-28T04:55:16;3.90;;;1.80;;
75550;SDS011;65071;53.082;18.218;2023-01-28T04:57:45;2.90;;;1.70;;
75550;SDS011;65071;53.082;18.218;2023-01-28T05:00:14;2.10;;;1.60;;
75550;SDS011;65071;53.082;18.218;2023-01-28T05:02:41;2.60;;;1.70;;
75550;SDS011;65071;53.082;18.218;2023-01-28T05:05:08;2.80;;;2.00;;
75550;SDS011;65071;53.082;18.218;2023-01-28T05:07:54;2.10;;;1.50;;
75550;SDS011;65071;53.082;18.218;2023-01-28T05:10:22;4.30;;;1.70;;
75550;SDS011;65071;53.082;18.218;2023-01-28T05:12:49;2.60;;;1.60;;
75550;SDS011;65071;53.082;18.218;2023-01-28T05:15:17;3.40;;;1.70;;
75550;SDS011;65071;53.082;18.218;2023-01-28T05:17:45;2.20;;;1.40;;
75550;SDS011;65071;53.082;18.218;2023-01-28T05:20:14;3.00;;;1.50;;
75550;SDS011;65071;53.082;18.218;2023-01-28T05:22:42;2.70;;;1.50;;
75550;SDS011;65071;53.082;18.218;2023-01-28T05:25:21;2.10;;;1.20;;
75550;SDS011;65071;53.082;18.218;2023-01-28T05:27:49;3.20;;;1.80;;
75550;SDS011;65071;53.082;18.218;2023-01-28T05:30:17;2.20;;;1.70;;
75550;SDS011;65071;53.082;18.218;2023-01-28T05:32:45;2.10;;;1.20;;
75550;SDS011;65071;53.082;18.218;2023-01-28T05:35:14;3.20;;;1.50;;
75550;SDS011;65071;53.082;18.218;2023-01-28T05:37:40;3.20;;;2.20;;
75550;SDS011;65071;53.082;18.218;2023-01-28T05:40:08;5.00;;;2.40;;
75550;SDS011;65071;53.082;18.218;2023-01-28T05:42:35;4.90;;;2.10;;
75550;SDS011;65071;53.082;18.218;2023-01-28T05:45:18;3.70;;;2.00;;
75550;SDS011;65071;53.082;18.218;2023-01-28T05:48:02;3.80;;;1.80;;
75550;SDS011;65071;53.082;18.218;2023-01-28T05:50:55;2.30;;;1.80;;
75550;SDS011;65071;53.082;18.218;2023-01-28T05:55:57;2.80;;;1.60;;
75550;SDS011;65071;53.082;18.218;2023-01-28T05:58:24;2.70;;;1.80;;
75550;SDS011;65071;53.082;18.218;2023-01-28T06:00:54;2.40;;;1.20;;
75550;SDS011;65071;53.082;18.218;2023-01-28T06:03:22;2.80;;;1.50;;
75550;SDS011;65071;53.082;18.218;2023-01-28T06:05:49;2.10;;;1.60;;
75550;SDS011;65071;53.082;18.218;2023-01-28T06:08:16;3.00;;;1.90;;
75550;SDS011;65071;53.082;18.218;2023-01-28T06:10:43;3.00;;;1.60;;
75550;SDS011;65071;53.082;18.218;2023-01-28T06:13:10;2.10;;;1.60;;
75550;SDS011;65071;53.082;18.218;2023-01-28T06:15:55;2.50;;;1.40;;
75550;SDS011;65071;53.082;18.218;2023-01-28T06:18:36;4.30;;;1.50;;
75550;SDS011;65071;53.082;18.218;2023-01-28T06:21:02;2.30;;;1.70;;
75550;SDS011;65071;53.082;18.218;2023-01-28T06:23:30;2.20;;;1.50;;
75550;SDS011;65071;53.082;18.218;2023-01-28T06:25:56;3.50;;;1.80;;
75550;SDS011;65071;53.082;18.218;2023-01-28T06:28:24;3.00;;;1.70;;
75550;SDS011;65071;53.082;18.218;2023-01-28T06:30:51;5.50;;;1.70;;
75550;SDS011;65071;53.082;18.218;2023-01-28T06:33:18;3.40;;;1.70;;
75550;SDS011;65071;53.082;18.218;2023-01-28T06:35:46;3.00;;;1.80;;
75550;SDS011;65071;53.082;18.218;2023-01-28T06:38:12;3.80;;;2.20;;
75550;SDS011;65071;53.082;18.218;2023-01-28T06:40:39;5.00;;;2.10;;
75550;SDS011;65071;53.082;18.218;2023-01-28T06:43:06;3.40;;;1.90;;
75550;SDS011;65071;53.082;18.218;2023-01-28T06:45:33;2.40;;;1.50;;
75550;SDS011;65071;53.082;18.218;2023-01-28T06:47:59;2.70;;;1.80;;
75550;SDS011;65071;53.082;18.218;2023-01-28T06:50:26;2.60;;;1.60;;
75550;SDS011;65071;53.082;18.218;2023-01-28T06:52:53;3.50;;;1.80;;
75550;SDS011;65071;53.082;18.218;2023-01-28T06:55:19;3.10;;;1.60;;
75550;SDS011;65071;53.082;18.218;2023-01-28T06:57:46;2.50;;;1.60;;
75550;SDS011;65071;53.082;18.218;2023-01-28T07:00:13;4.30;;;1.80;;
75550;SDS011;65071;53.082;18.218;2023-01-28T07:02:41;4.90;;;1.70;;
75550;SDS011;65071;53.082;18.218;2023-01-28T07:05:08;2.10;;;1.50;;
75550;SDS011;65071;53.082;18.218;2023-01-28T07:07:35;3.90;;;1.60;;
75550;SDS011;65071;53.082;18.218;2023-01-28T07:10:02;2.90;;;1.70;;
75550;SDS011;65071;53.082;18.218;2023-01-28T07:12:30;2.50;;;1.70;;
75550;SDS011;65071;53.082;18.218;2023-01-28T07:14:56;2.60;;;1.50;;
75550;SDS011;65071;53.082;18.218;2023-01-28T07:17:23;2.10;;;1.40;;
75550;SDS011;65071;53.082;18.218;2023-01-28T07:19:50;2.70;;;1.60;;
75550;SDS011;65071;53.082;18.218;2023-01-28T07:22:16;3.30;;;1.60;;
75550;SDS011;65071;53.082;18.218;2023-01-28T07:24:43;3.40;;;1.70;;
75550;SDS011;65071;53.082;18.218;2023-01-28T07:27:10;3.20;;;1.50;;
75550;SDS011;65071;53.082;18.218;2023-01-28T07:29:36;3.30;;;1.80;;
75550;SDS011;65071;53.082;18.218;2023-01-28T07:32:03;1.80;;;1.60;;
75550;SDS011;65071;53.082;18.218;2023-01-28T07:34:32;3.30;;;1.50;;
75550;SDS011;65071;53.082;18.218;2023-01-28T07:36:59;2.60;;;1.60;;
75550;SDS011;65071;53.082;18.218;2023-01-28T07:39:26;2.60;;;1.60;;
75550;SDS011;65071;53.082;18.218;2023-01-28T07:41:52;2.70;;;1.60;;
75550;SDS011;65071;53.082;18.218;2023-01-28T07:44:35;4.20;;;1.60;;
75550;SDS011;65071;53.082;18.218;2023-01-28T07:47:03;4.20;;;1.90;;
75550;SDS011;65071;53.082;18.218;2023-01-28T07:49:32;5.50;;;1.80;;
75550;SDS011;65071;53.082;18.218;2023-01-28T07:51:59;3.40;;;1.80;;
75550;SDS011;65071;53.082;18.218;2023-01-28T07:54:26;4.10;;;1.80;;
75550;SDS011;65071;53.082;18.218;2023-01-28T07:56:52;4.80;;;2.00;;
75550;SDS011;65071;53.082;18.218;2023-01-28T07:59:19;3.10;;;1.80;;
75550;SDS011;65071;53.082;18.218;2023-01-28T08:01:46;4.70;;;1.90;;
75550;SDS011;65071;53.082;18.218;2023-01-28T08:04:12;3.40;;;1.60;;
75550;SDS011;65071;53.082;18.218;2023-01-28T08:06:39;3.30;;;1.70;;
75550;SDS011;65071;53.082;18.218;2023-01-28T08:09:06;3.10;;;1.70;;
75550;SDS011;65071;53.082;18.218;2023-01-28T08:11:36;3.90;;;1.80;;
75550;SDS011;65071;53.082;18.218;2023-01-28T08:14:03;3.10;;;1.60;;
75550;SDS011;65071;53.082;18.218;2023-01-28T08:16:30;3.60;;;1.60;;
75550;SDS011;65071;53.082;18.218;2023-01-28T08:18:57;5.80;;;2.00;;
75550;SDS011;65071;53.082;18.218;2023-01-28T08:21:23;3.40;;;1.90;;
75550;SDS011;65071;53.082;18.218;2023-01-28T08:23:50;3.30;;;2.10;;
75550;SDS011;65071;53.082;18.218;2023-01-28T08:26:17;3.90;;;1.90;;
75550;SDS011;65071;53.082;18.218;2023-01-28T08:28:43;4.50;;;1.90;;
75550;SDS011;65071;53.082;18.218;2023-01-28T08:31:10;2.60;;;1.90;;
75550;SDS011;65071;53.082;18.218;2023-01-28T08:33:37;2.70;;;2.00;;
75550;SDS011;65071;53.082;18.218;2023-01-28T08:36:04;4.70;;;2.00;;
75550;SDS011;65071;53.082;18.218;2023-01-28T08:38:31;3.20;;;2.20;;
75550;SDS011;65071;53.082;18.218;2023-01-28T08:40:58;2.90;;;1.90;;
75550;SDS011;65071;53.082;18.218;2023-01-28T08:43:25;5.20;;;2.20;;
75550;SDS011;65071;53.082;18.218;2023-01-28T08:45:51;3.80;;;1.80;;
75550;SDS011;65071;53.082;18.218;2023-01-28T08:48:18;3.20;;;1.70;;
75550;SDS011;65071;53.082;18.218;2023-01-28T08:50:45;2.80;;;1.80;;
75550;SDS011;65071;53.082;18.218;2023-01-28T08:53:12;4.60;;;2.00;;
75550;SDS011;65071;53.082;18.218;2023-01-28T08:55:40;3.60;;;1.90;;
75550;SDS011;65071;53.082;18.218;2023-01-28T08:58:14;3.20;;;2.00;;
75550;SDS011;65071;53.082;18.218;2023-01-28T09:00:43;3.50;;;2.10;;
75550;SDS011;65071;53.082;18.218;2023-01-28T09:03:11;5.70;;;2.40;;
75550;SDS011;65071;53.082;18.218;2023-01-28T09:05:38;2.50;;;1.80;;
75550;SDS011;65071;53.082;18.218;2023-01-28T09:08:06;5.90;;;2.20;;
75550;SDS011;65071;53.082;18.218;2023-01-28T09:10:35;4.20;;;2.20;;
75550;SDS011;65071;53.082;18.218;2023-01-28T09:13:06;6.40;;;2.00;;
75550;SDS011;65071;53.082;18.218;2023-01-28T09:15:40;3.40;;;2.10;;
75550;SDS011;65071;53.082;18.218;2023-01-28T09:18:08;4.00;;;2.00;;
75550;SDS011;65071;53.082;18.218;2023-01-28T09:20:36;2.40;;;1.70;;
75550;SDS011;65071;53.082;18.218;2023-01-28T09:23:03;3.90;;;2.10;;
75550;SDS011;65071;53.082;18.218;2023-01-28T09:25:31;3.30;;;2.20;;
75550;SDS011;65071;53.082;18.218;2023-01-28T09:27:58;3.20;;;2.10;;
75550;SDS011;65071;53.082;18.218;2023-01-28T09:30:24;3.30;;;1.80;;
75550;SDS011;65071;53.082;18.218;2023-01-28T09:32:51;3.20;;;2.00;;
75550;SDS011;65071;53.082;18.218;2023-01-28T09:35:19;5.40;;;2.60;;
75550;SDS011;65071;53.082;18.218;2023-01-28T09:37:47;4.10;;;2.50;;
75550;SDS011;65071;53.082;18.218;2023-01-28T09:40:57;5.00;;;2.60;;
75550;SDS011;65071;53.082;18.218;2023-01-28T09:46:27;5.60;;;2.80;;
75550;SDS011;65071;53.082;18.218;2023-01-28T09:48:57;6.70;;;3.20;;
75550;SDS011;65071;53.082;18.218;2023-01-28T09:54:03;7.60;;;3.80;;
75550;SDS011;65071;53.082;18.218;2023-01-28T09:56:40;8.20;;;3.80;;
75550;SDS011;65071;53.082;18.218;2023-01-28T09:59:21;6.90;;;3.00;;
75550;SDS011;65071;53.082;18.218;2023-01-28T10:04:43;6.10;;;2.60;;
75550;SDS011;65071;53.082;18.218;2023-01-28T10:07:31;4.30;;;2.30;;
75550;SDS011;65071;53.082;18.218;2023-01-28T10:15:23;4.20;;;2.50;;
75550;SDS011;65071;53.082;18.218;2023-01-28T10:18:02;4.90;;;2.70;;
75550;SDS011;65071;53.082;18.218;2023-01-28T10:20:39;5.60;;;2.40;;
75550;SDS011;65071;53.082;18.218;2023-01-28T10:23:13;6.70;;;3.20;;
75550;SDS011;65071;53.082;18.218;2023-01-28T10:25:42;3.50;;;2.20;;
75550;SDS011;65071;53.082;18.218;2023-01-28T10:28:17;5.10;;;2.30;;
75550;SDS011;65071;53.082;18.218;2023-01-28T10:30:46;4.10;;;2.20;;
75550;SDS011;65071;53.082;18.218;2023-01-28T10:33:19;4.80;;;2.40;;
75550;SDS011;65071;53.082;18.218;2023-01-28T10:35:50;4.60;;;2.60;;
75550;SDS011;65071;53.082;18.218;2023-01-28T10:38:19;4.70;;;2.60;;
75550;SDS011;65071;53.082;18.218;2023-01-28T10:40:48;3.60;;;1.80;;
75550;SDS011;65071;53.082;18.218;2023-01-28T10:43:17;4.10;;;1.70;;
75550;SDS011;65071;53.082;18.218;2023-01-28T10:45:52;2.90;;;1.70;;
75550;SDS011;65071;53.082;18.218;2023-01-28T10:48:45;3.50;;;1.50;;
75550;SDS011;65071;53.082;18.218;2023-01-28T10:51:32;3.80;;;1.40;;
75550;SDS011;65071;53.082;18.218;2023-01-28T10:54:00;1.90;;;1.00;;
75550;SDS011;65071;53.082;18.218;2023-01-28T10:56:28;2.10;;;0.80;;
75550;SDS011;65071;53.082;18.218;2023-01-28T11:01:39;2.50;;;1.50;;
75550;SDS011;65071;53.082;18.218;2023-01-28T11:04:16;1.90;;;1.10;;
75550;SDS011;65071;53.082;18.218;2023-01-28T11:07:02;2.10;;;1.10;;
75550;SDS011;65071;53.082;18.218;2023-01-28T11:09:44;1.30;;;0.90;;
75550;SDS011;65071;53.082;18.218;2023-01-28T11:14:51;3.10;;;1.40;;
75550;SDS011;65071;53.082;18.218;2023-01-28T11:17:21;4.90;;;1.70;;
75550;SDS011;65071;53.082;18.218;2023-01-28T11:19:52;4.90;;;1.80;;
75550;SDS011;65071;53.082;18.218;2023-01-28T11:22:35;3.30;;;1.60;;
75550;SDS011;65071;53.082;18.218;2023-01-28T11:25:28;2.20;;;1.30;;
75550;SDS011;65071;53.082;18.218;2023-01-28T11:27:56;3.40;;;1.40;;
75550;SDS011;65071;53.082;18.218;2023-01-28T11:30:25;1.60;;;1.00;;
75550;SDS011;65071;53.082;18.218;2023-01-28T11:32:56;3.10;;;1.30;;
75550;SDS011;65071;53.082;18.218;2023-01-28T11:35:29;2.60;;;1.50;;
75550;SDS011;65071;53.082;18.218;2023-01-28T11:37:57;3.80;;;1.40;;
75550;SDS011;65071;53.082;18.218;2023-01-28T11:40:25;1.90;;;0.90;;
75550;SDS011;65071;53.082;18.218;2023-01-28T11:42:53;2.10;;;1.00;;
75550;SDS011;65071;53.082;18.218;2023-01-28T11:45:34;2.90;;;1.10;;
75550;SDS011;65071;53.082;18.218;2023-01-28T11:50:56;3.80;;;1.50;;
75550;SDS011;65071;53.082;18.218;2023-01-28T11:53:33;4.60;;;2.20;;
75550;SDS011;65071;53.082;18.218;2023-01-28T12:08:03;3.70;;;1.80;;
75550;SDS011;65071;53.082;18.218;2023-01-28T12:30:03;4.70;;;2.40;;
75550;SDS011;65071;53.082;18.218;2023-01-28T12:41:24;7.10;;;3.70;;
75550;SDS011;65071;53.082;18.218;2023-01-28T12:44:05;6.40;;;3.00;;
75550;SDS011;65071;53.082;18.218;2023-01-28T12:52:00;4.10;;;2.00;;
75550;SDS011;65071;53.082;18.218;2023-01-28T12:57:25;7.50;;;3.30;;
75550;SDS011;65071;53.082;18.218;2023-01-28T13:03:01;8.40;;;3.40;;
75550;SDS011;65071;53.082;18.218;2023-01-28T13:05:51;6.30;;;3.40;;
75550;SDS011;65071;53.082;18.218;2023-01-28T13:08:22;7.20;;;2.70;;
75550;SDS011;65071;53.082;18.218;2023-01-28T13:10:51;8.40;;;3.60;;
75550;SDS011;65071;53.082;18.218;2023-01-28T13:13:33;10.90;;;4.10;;
75550;SDS011;65071;53.082;18.218;2023-01-28T13:16:03;3.90;;;1.70;;
75550;SDS011;65071;53.082;18.218;2023-01-28T13:21:08;3.60;;;1.70;;
75550;SDS011;65071;53.082;18.218;2023-01-28T13:23:46;2.70;;;1.30;;
75550;SDS011;65071;53.082;18.218;2023-01-28T13:28:48;3.60;;;1.60;;
75550;SDS011;65071;53.082;18.218;2023-01-28T13:31:17;2.90;;;1.50;;
75550;SDS011;65071;53.082;18.218;2023-01-28T13:36:23;3.70;;;1.80;;
75550;SDS011;65071;53.082;18.218;2023-01-28T13:41:36;5.70;;;2.60;;
75550;SDS011;65071;53.082;18.218;2023-01-28T13:46:47;2.80;;;1.60;;
75550;SDS011;65071;53.082;18.218;2023-01-28T13:49:15;2.60;;;1.40;;
75550;SDS011;65071;53.082;18.218;2023-01-28T13:51:57;3.60;;;1.80;;
75550;SDS011;65071;53.082;18.218;2023-01-28T13:54:30;2.30;;;1.40;;
75550;SDS011;65071;53.082;18.218;2023-01-28T14:08:03;2.30;;;1.00;;
75550;SDS011;65071;53.082;18.218;2023-01-28T14:19:41;3.90;;;1.30;;
75550;SDS011;65071;53.082;18.218;2023-01-28T14:22:12;3.30;;;1.40;;
75550;SDS011;65071;53.082;18.218;2023-01-28T14:24:44;2.10;;;1.20;;
75550;SDS011;65071;53.082;18.218;2023-01-28T14:32:47;6.60;;;2.90;;
75550;SDS011;65071;53.082;18.218;2023-01-28T14:35:21;9.10;;;4.30;;
75550;SDS011;65071;53.082;18.218;2023-01-28T14:37:54;8.50;;;4.60;;
75550;SDS011;65071;53.082;18.218;2023-01-28T14:40:23;7.40;;;3.30;;
75550;SDS011;65071;53.082;18.218;2023-01-28T14:42:51;3.20;;;2.30;;
75550;SDS011;65071;53.082;18.218;2023-01-28T14:45:24;3.20;;;2.00;;
75550;SDS011;65071;53.082;18.218;2023-01-28T14:48:25;8.90;;;4.20;;
75550;SDS011;65071;53.082;18.218;2023-01-28T14:59:45;5.00;;;2.90;;
75550;SDS011;65071;53.082;18.218;2023-01-28T15:02:20;5.20;;;3.50;;
75550;SDS011;65071;53.082;18.218;2023-01-28T15:04:48;6.70;;;3.40;;
75550;SDS011;65071;53.082;18.218;2023-01-28T15:07:23;5.70;;;2.70;;
75550;SDS011;65071;53.082;18.218;2023-01-28T15:09:59;6.00;;;3.60;;
75550;SDS011;65071;53.082;18.218;2023-01-28T15:12:28;7.70;;;4.00;;
75550;SDS011;65071;53.082;18.218;2023-01-28T15:15:06;8.20;;;3.80;;
75550;SDS011;65071;53.082;18.218;2023-01-28T15:20:02;18.60;;;7.40;;
75550;SDS011;65071;53.082;18.218;2023-01-28T15:22:29;18.20;;;7.20;;
75550;SDS011;65071;53.082;18.218;2023-01-28T15:24:55;26.20;;;9.80;;
75550;SDS011;65071;53.082;18.218;2023-01-28T15:27:27;9.30;;;4.30;;
75550;SDS011;65071;53.082;18.218;2023-01-28T15:29:56;9.10;;;3.80;;
75550;SDS011;65071;53.082;18.218;2023-01-28T15:32:26;7.10;;;3.20;;
75550;SDS011;65071;53.082;18.218;2023-01-28T15:37:21;6.10;;;3.10;;
75550;SDS011;65071;53.082;18.218;2023-01-28T15:39:58;8.10;;;3.00;;
75550;SDS011;65071;53.082;18.218;2023-01-28T15:42:32;8.50;;;3.80;;
75550;SDS011;65071;53.082;18.218;2023-01-28T15:45:00;5.70;;;2.90;;
75550;SDS011;65071;53.082;18.218;2023-01-28T15:47:28;3.60;;;2.50;;
75550;SDS011;65071;53.082;18.218;2023-01-28T15:50:00;2.80;;;1.70;;
75550;SDS011;65071;53.082;18.218;2023-01-28T15:52:48;4.80;;;2.60;;
75550;SDS011;65071;53.082;18.218;2023-01-28T15:56:02;4.60;;;2.30;;
75550;SDS011;65071;53.082;18.218;2023-01-28T16:00:35;2.50;;;1.40;;
75550;SDS011;65071;53.082;18.218;2023-01-28T16:03:06;3.10;;;1.80;;
75550;SDS011;65071;53.082;18.218;2023-01-28T16:05:38;3.20;;;1.90;;
75550;SDS011;65071;53.082;18.218;2023-01-28T16:08:18;3.90;;;1.30;;
75550;SDS011;65071;53.082;18.218;2023-01-28T16:11:09;1.70;;;1.20;;
75550;SDS011;65071;53.082;18.218;2023-01-28T16:13:40;2.40;;;1.80;;
75550;SDS011;65071;53.082;18.218;2023-01-28T16:16:09;2.80;;;1.60;;
75550;SDS011;65071;53.082;18.218;2023-01-28T16:18:41;2.10;;;1.60;;
75550;SDS011;65071;53.082;18.218;2023-01-28T16:21:24;2.70;;;1.60;;
75550;SDS011;65071;53.082;18.218;2023-01-28T16:26:56;3.20;;;1.60;;
75550;SDS011;65071;53.082;18.218;2023-01-28T16:29:26;2.50;;;2.00;;
75550;SDS011;65071;53.082;18.218;2023-01-28T16:31:53;4.90;;;2.20;;
75550;SDS011;65071;53.082;18.218;2023-01-28T16:34:20;9.50;;;3.70;;
75550;SDS011;65071;53.082;18.218;2023-01-28T16:36:48;12.40;;;4.60;;
75550;SDS011;65071;53.082;18.218;2023-01-28T16:39:14;10.20;;;4.70;;
75550;SDS011;65071;53.082;18.218;2023-01-28T16:41:42;13.20;;;4.80;;
75550;SDS011;65071;53.082;18.218;2023-01-28T16:44:13;8.10;;;3.50;;
75550;SDS011;65071;53.082;18.218;2023-01-28T16:46:40;9.20;;;3.70;;
75550;SDS011;65071;53.082;18.218;2023-01-28T16:49:08;6.80;;;3.70;;
75550;SDS011;65071;53.082;18.218;2023-01-28T16:51:36;6.00;;;3.20;;
75550;SDS011;65071;53.082;18.218;2023-01-28T16:54:06;6.50;;;3.30;;
75550;SDS011;65071;53.082;18.218;2023-01-28T16:56:32;4.90;;;2.30;;
75550;SDS011;65071;53.082;18.218;2023-01-28T16:58:59;4.10;;;2.50;;
75550;SDS011;65071;53.082;18.218;2023-01-28T17:01:26;5.40;;;2.40;;
75550;SDS011;65071;53.082;18.218;2023-01-28T17:03:53;3.70;;;2.30;;
75550;SDS011;65071;53.082;18.218;2023-01-28T17:06:21;2.90;;;2.00;;
75550;SDS011;65071;53.082;18.218;2023-01-28T17:08:48;4.60;;;2.50;;
75550;SDS011;65071;53.082;18.218;2023-01-28T17:11:15;5.60;;;2.40;;
75550;SDS011;65071;53.082;18.218;2023-01-28T17:13:41;4.90;;;2.50;;
75550;SDS011;65071;53.082;18.218;2023-01-28T17:16:08;5.00;;;2.50;;
75550;SDS011;65071;53.082;18.218;2023-01-28T17:18:35;4.70;;;3.00;;
75550;SDS011;65071;53.082;18.218;2023-01-28T17:21:02;4.40;;;2.10;;
75550;SDS011;65071;53.082;18.218;2023-01-28T17:23:30;10.50;;;5.20;;
75550;SDS011;65071;53.082;18.218;2023-01-28T17:26:06;10.10;;;5.10;;
75550;SDS011;65071;53.082;18.218;2023-01-28T17:28:34;6.50;;;3.50;;
75550;SDS011;65071;53.082;18.218;2023-01-28T17:31:05;4.00;;;2.60;;
75550;SDS011;65071;53.082;18.218;2023-01-28T17:33:32;5.70;;;3.30;;
75550;SDS011;65071;53.082;18.218;2023-01-28T17:36:00;6.50;;;3.00;;